香港 の空港の天気 - METARとTAF

香港国際空港 ( VHHH / HKG ) - 香港 赤リョウ角
飛行場実況気象(Metar)
観測時間01/20 09:30 HKT (01/20 01:30 UTC)
風向・風速北北東 4m/s
視程10km以上
天気現象
少しの雲 雲底高度 760m
全天の4割程度の雲 雲底高度 1070m
気温17℃
湿度63%
気圧1025hPa
METARVHHH 200130Z 02008KT 350V050 9999 FEW025 SCT035 17/10 Q1025 NOSIG
過去の天気等 Google飛行場航空写真 Wunderground天気予報

過去48時間のMETAR

飛行場予報(TAF)
発表時間: 1/20 07:00 HKT (1/19 23:00 UTC)
予報対象時間: 20日8時 HKT ~ 21日14時 HKT
風向・風速北北東 5m/s
視程8,000m
少しの雲 雲底高度 610m
全天の4割程度の雲 雲底高度 1,070m
20日8時 HKT ~ 20日20時 HKT に一時的に
風向・風速北北西 8m/s 瞬間風速 13m/s
20日23時 HKT ~ 21日8時 HKT に一時的に
風向・風速東 5m/s
21日8時 HKT ~ 21日14時 HKT に一時的に
風向・風速北西 5m/s
TAF VHHH 192300Z 2000/2106 02010KT 8000 FEW020 SCT035 TX21/2006Z TX19/2106Z TN14/2023Z
TEMPO 2000/2012 33015G25KT
TEMPO 2015/2024 08010KT
TEMPO 2100/2106 32010KT